ADDS METAR Data INFO
IDs: Format: Raw Decoded Include TAF

Data at: 0313 UTC 18 Aug 2017

K66R 180255Z AUTO 17005KT 10SM CLR 28/23 A3003 RMK AO2 T02750225
K66R 180235Z AUTO 17005KT 10SM CLR 28/22 A3002 RMK AO2 T02770221
K66R 180215Z AUTO 17005KT 10SM CLR 29/22 A3001 RMK AO2 T02850219
K66R 180155Z AUTO 17005KT 10SM CLR 29/22 A3000 RMK AO2 T02870215
K66R 180135Z AUTO 17005KT 10SM CLR 29/21 A2999 RMK AO2 T02920211
K66R 180115Z AUTO 17008KT 10SM CLR 30/21 A2998 RMK AO2 T03000206
K66R 180055Z AUTO 17008KT 10SM CLR 31/21 A2998 RMK AO2 T03050206
K66R 180035Z AUTO 17010G15KT 10SM CLR 31/21 A2997 RMK AO2 T03110207
K66R 180015Z AUTO 16009G17KT 10SM CLR 32/21 A2995 RMK AO2 T03180206
K66R 172355Z AUTO 17010G18KT 10SM CLR 33/21 A2995 RMK AO2 T03250206 10360 20325
K66R 172335Z AUTO 17008G16KT 10SM CLR 33/20 A2995 RMK AO2 T03320204
K66R 172315Z AUTO 17012G17KT 10SM CLR 34/20 A2995 RMK AO2 T03380203
K66R 172255Z AUTO 18012G17KT 10SM CLR 34/20 A2995 RMK AO2 T03420197
K66R 172235Z AUTO 16010G19KT 10SM CLR 35/20 A2995 RMK AO2 T03460201
K66R 172215Z AUTO 19008G14KT 10SM CLR 35/20 A2995 RMK AO2 T03500197
K66R 172155Z AUTO 18011KT 10SM SCT060 35/20 A2996 RMK AO2 T03520198
K66R 172135Z AUTO 16010G16KT 10SM BKN060 36/20 A2997 RMK AO2 T03550196
K66R 172115Z AUTO 17010G16KT 10SM BKN060 BKN075 35/20 A2997 RMK AO2 T03470197
K66R 172055Z AUTO 15008G15KT 10SM BKN060 BKN075 36/20 A2998 RMK AO2 T03560197
K66R 172035Z AUTO 16010KT 130V190 10SM BKN060 BKN075 35/20 A2999 RMK AO2 T03520201
K66R 172015Z AUTO 18010G15KT 10SM SCT060 BKN075 BKN085 36/20 A3000 RMK AO2 T03560204
K66R 171955Z AUTO 17008KT 130V190 10SM SCT060 BKN070 BKN085 35/20 A3001 RMK AO2 T03490199
K66R 171935Z AUTO 17004G14KT 10SM SCT060 36/20 A3002 RMK AO2 T03570199
K66R 171915Z AUTO 19008KT 10SM CLR 35/20 A3002 RMK AO2 T03540197
K66R 171855Z AUTO 22009KT 10SM SCT060 35/20 A3003 RMK AO2 T03540195
K66R 171835Z AUTO 20004KT 10SM SCT050 35/20 A3003 RMK AO2 T03470199
K66R 171810Z AUTO 20008G14KT 10SM SCT050 34/21 A3004 RMK AO2 T03420206
K66R 171755Z AUTO 22006KT 10SM SCT050 34/20 A3005 RMK AO2 T03440201 10344 20264
K66R 171735Z AUTO 22006KT 10SM SCT048 34/21 A3005 RMK AO2 T03410207
K66R 171715Z AUTO 23008KT 10SM SCT044 34/22 A3005 RMK AO2 T03370215
K66R 171655Z AUTO 17008G19KT 10SM SCT044 34/22 A3006 RMK AO2 T03350217
K66R 171635Z AUTO 19008KT 10SM BKN040 BKN046 33/22 A3007 RMK AO2 T03290216
K66R 171615Z AUTO 19007G14KT 10SM BKN040 33/22 A3007 RMK AO2 T03270219
K66R 171555Z AUTO 19008KT 10SM SCT032 SCT039 32/22 A3007 RMK AO2 T03200218
K66R 171535Z AUTO 20009KT 10SM SCT032 31/23 A3007 RMK AO2 T03140227
K66R 171515Z AUTO 22007G14KT 10SM SCT025 SCT030 31/23 A3007 RMK AO2 T03090225
K66R 171455Z AUTO 18009KT 10SM SCT023 BKN030 31/24 A3007 RMK AO2 T03080241
K66R 171435Z AUTO 19008G15KT 10SM SCT019 SCT026 29/24 A3006 RMK AO2 T02910239
K66R 171415Z AUTO 19010KT 10SM BKN016 BKN022 29/25 A3005 RMK AO2 T02920246
K66R 171355Z AUTO 21009KT 10SM BKN013 BKN019 29/25 A3005 RMK AO2 T02850252
K66R 171335Z AUTO 18006KT 10SM CLR 28/26 A3005 RMK AO2 T02800255
K66R 171315Z AUTO 17005KT 10SM CLR 27/26 A3004 RMK AO2 T02720255
K66R 171255Z AUTO 00000KT 7SM CLR 27/26 A3004 RMK AO2 T02700256
K66R 171235Z AUTO 00000KT 7SM CLR 27/26 A3003 RMK AO2 T02650255
K66R 171215Z AUTO 00000KT 7SM SCT012 SCT020 SCT027 27/25 A3002 RMK AO2 T02650252
K66R 171155Z AUTO 00000KT 7SM SCT015 BKN020 OVC033 27/25 A3002 RMK AO2 T02650252 10272 20265
K66R 171135Z AUTO 00000KT 10SM BKN016 BKN021 OVC025 27/25 A3002 RMK AO2 T02650253
K66R 171115Z AUTO 00000KT 10SM SCT013 BKN020 OVC025 27/25 A3002 RMK AO2 T02650252
K66R 171055Z AUTO 00000KT 10SM BKN013 OVC021 27/25 A3002 RMK AO2 T02660253
K66R 171035Z AUTO 00000KT 10SM BKN015 BKN023 BKN028 27/25 A3002 RMK AO2 T02650252
K66R 171015Z AUTO 00000KT 10SM SCT015 BKN020 BKN028 27/25 A3001 RMK AO2 T02650252
K66R 170955Z AUTO 18004KT 10SM BKN017 BKN025 27/25 A3001 RMK AO2 T02650252
K66R 170935Z AUTO 17004KT 10SM SCT019 SCT029 27/25 A3000 RMK AO2 T02650252
K66R 170915Z AUTO 18004KT 10SM SCT019 SCT028 27/25 A3000 RMK AO2 T02660253
K66R 170855Z AUTO 17004KT 10SM SCT019 SCT028 27/26 A3000 RMK AO2 T02670255
K66R 170835Z AUTO 18005KT 10SM CLR 27/26 A3000 RMK AO2 T02670255
K66R 170815Z AUTO 18005KT 10SM SCT016 SCT022 SCT029 27/25 A2999 RMK AO2 T02660254
K66R 170755Z AUTO 18004KT 10SM SCT018 SCT022 BKN027 27/26 A2999 RMK AO2 T02670255
K66R 170735Z AUTO 16005KT 10SM SCT020 BKN027 BKN032 27/25 A2999 RMK AO2 T02670253
K66R 170715Z AUTO 17004KT 10SM SCT014 BKN020 BKN027 27/25 A3000 RMK AO2 T02680253
K66R 170655Z AUTO 17004KT 10SM BKN014 OVC021 27/26 A3000 RMK AO2 T02700255
K66R 170635Z AUTO 18005KT 10SM BKN014 BKN020 OVC027 27/25 A3000 RMK AO2 T02700253
K66R 170615Z AUTO 17005KT 10SM BKN017 OVC026 27/25 A2999 RMK AO2 T02710254
K66R 170555Z AUTO 17006KT 10SM OVC017 27/26 A3000 RMK AO2 T02720255 10323 20271 403510251
K66R 170535Z AUTO 16006KT 10SM OVC017 27/26 A2999 RMK AO2 T02730255
K66R 170515Z AUTO 16004KT 10SM BKN017 BKN024 27/26 A2999 RMK AO2 T02710255
K66R 170455Z AUTO 16005KT 10SM CLR 27/26 A2998 RMK AO2 T02730255
K66R 170435Z AUTO 16005KT 10SM CLR 28/26 A2997 RMK AO2 T02760255
K66R 170415Z AUTO 16008KT 10SM CLR 28/25 A2997 RMK AO2 LTG DSNT NW T02770253
K66R 170355Z AUTO 16007KT 10SM CLR 28/25 A2997 RMK AO2 T02770251
K66R 170330Z AUTO 16007KT 10SM CLR 28/25 A2998 RMK AO2 T02780250
K66R 170315Z AUTO 16006KT 10SM CLR 28/25 A2998 RMK AO2 T02800249
K66R 170255Z AUTO 16006KT 10SM CLR 28/25 A2998 RMK AO2 LTG DSNT SW T02820246
K66R 170235Z AUTO 16008KT 10SM CLR 29/25 A2997 RMK AO2 T02850245
K66R 170215Z AUTO 17010G14KT 10SM CLR 29/24 A2997 RMK AO2 T02880240
K66R 170155Z AUTO 17009G17KT 10SM CLR 29/23 A2996 RMK AO2 T02940231
K66R 170135Z AUTO 17009G16KT 10SM CLR 30/23 A2995 RMK AO2 T02980230
K66R 170115Z AUTO 16011G18KT 10SM CLR 30/23 A2994 RMK AO2 T03020225
K66R 170055Z AUTO 16010G15KT 10SM CLR 31/22 A2993 RMK AO2 T03060220
K66R 170035Z AUTO 17009G15KT 10SM CLR 31/22 A2993 RMK AO2 T03120221
K66R 170015Z AUTO 16011G16KT 10SM CLR 32/22 A2992 RMK AO2 T03180220
K66R 162355Z AUTO 17011G20KT 10SM CLR 32/21 A2992 RMK AO2 T03240212 10351 20324
K66R 162335Z AUTO 16010G15KT 10SM CLR 33/21 A2992 RMK AO2 T03300213
K66R 162315Z AUTO 16012G17KT 10SM CLR 33/21 A2992 RMK AO2 T03320205
K66R 162255Z AUTO 16011G17KT 10SM SCT050 34/21 A2992 RMK AO2 T03350207
K66R 162235Z AUTO 16013G17KT 10SM SCT050 SCT055 34/21 A2992 RMK AO2 T03400208
K66R 162215Z AUTO 18011G16KT 10SM BKN050 34/21 A2992 RMK AO2 T03440212
K66R 162155Z AUTO 15011G20KT 10SM BKN050 34/22 A2992 RMK AO2 T03420215
K66R 162135Z AUTO 15013G18KT 10SM SCT050 SCT060 35/21 A2992 RMK AO2 T03470213
K66R 162115Z AUTO 15013G18KT 10SM SCT050 SCT060 34/21 A2992 RMK AO2 T03420213
K66R 162055Z AUTO 15014G18KT 10SM SCT050 35/22 A2992 RMK AO2 T03480218
K66R 162035Z AUTO 15013KT 10SM SCT050 35/22 A2992 RMK AO2 T03510216
K66R 162015Z AUTO 15013G20KT 10SM SCT050 34/22 A2992 RMK AO2 T03440217
K66R 161955Z AUTO 17012G18KT 10SM SCT048 35/22 A2993 RMK AO2 T03490222
K66R 161935Z AUTO 18010G19KT 10SM SCT048 35/23 A2994 RMK AO2 T03460225
K66R 161915Z AUTO 19011G15KT 10SM CLR 35/21 A2995 RMK AO2 T03490207
K66R 161855Z AUTO 18010G17KT 10SM CLR 35/22 A2995 RMK AO2 T03460216
K66R 161835Z AUTO 15010G17KT 10SM CLR 35/22 A2996 RMK AO2 T03470220
K66R 161815Z AUTO 16011G16KT 10SM CLR 35/21 A2997 RMK AO2 T03460212
K66R 161755Z AUTO 19011G16KT 10SM SCT044 35/21 A2998 RMK AO2 T03460210 10346 20255
K66R 161735Z AUTO 20009KT 10SM SCT044 BKN050 BKN060 33/22 A2998 RMK AO2 T03320218
K66R 161715Z AUTO 18009G19KT 10SM SCT046 SCT055 SCT070 34/22 A2998 RMK AO2 T03380218
K66R 161655Z AUTO 18009KT 10SM CLR 34/22 A2999 RMK AO2 T03390216
K66R 161635Z AUTO 18012G19KT 10SM SCT042 SCT050 SCT065 33/22 A2999 RMK AO2 T03310215
K66R 161615Z AUTO 19011G15KT 10SM SCT041 SCT050 SCT065 33/22 A2999 RMK AO2 T03280220
K66R 161555Z AUTO 19011KT 10SM SCT034 SCT039 SCT055 31/23 A2999 RMK AO2 T03080226
K66R 161535Z AUTO 18011G18KT 10SM SCT032 SCT037 BKN045 31/23 A2999 RMK AO2 T03130233
K66R 161515Z AUTO 18009KT 10SM SCT023 SCT030 SCT035 31/24 A2998 RMK AO2 T03050235